createdAt,value
2022-11-24T00:00:53.452Z,100127.56
2022-11-24T00:03:20.028Z,100130.34
2022-11-24T00:05:46.544Z,100134.28
2022-11-24T00:08:13.362Z,100134.69
2022-11-24T00:10:39.825Z,100136.28
2022-11-24T00:13:06.284Z,100139.16
2022-11-24T00:15:32.738Z,100132.44
2022-11-24T00:17:59.344Z,100144.81
2022-11-24T00:20:25.729Z,100137.47
2022-11-24T00:22:52.108Z,100144.13
2022-11-24T00:25:18.562Z,100147.44
2022-11-24T00:27:45.150Z,100133.53
2022-11-24T00:30:12.054Z,100146.28
2022-11-24T00:32:38.431Z,100146.41
2022-11-24T00:35:05.281Z,100151.72
2022-11-24T00:37:31.686Z,100152.91
2022-11-24T00:39:58.129Z,100162.50
2022-11-24T00:42:24.555Z,100158.34
2022-11-24T00:44:50.978Z,100154.53
2022-11-24T00:47:17.582Z,100162.72
2022-11-24T00:49:44.072Z,100160.69
2022-11-24T00:52:10.467Z,100157.72
2022-11-24T00:54:36.923Z,100157.47
2022-11-24T00:57:03.351Z,100164.78
2022-11-24T00:59:29.828Z,100158.13
2022-11-24T01:01:56.511Z,100162.81
2022-11-24T01:04:22.968Z,100154.72
2022-11-24T01:06:49.339Z,100164.88
2022-11-24T01:09:15.880Z,100155.69
2022-11-24T01:12:00.991Z,100163.16
2022-11-24T01:14:27.788Z,100180.53
2022-11-24T01:16:54.639Z,100181.19
2022-11-24T01:19:21.661Z,100172.44
2022-11-24T01:21:48.450Z,100173.06
2022-11-24T01:24:15.687Z,100175.44
2022-11-24T01:26:42.391Z,100175.22
2022-11-24T01:29:10.734Z,100180.00
2022-11-24T01:31:37.237Z,100178.50
2022-11-24T01:34:03.981Z,100177.47
2022-11-24T01:36:30.490Z,100183.84
2022-11-24T01:38:56.895Z,100182.91
2022-11-24T01:41:24.936Z,100182.03
2022-11-24T01:43:52.684Z,100183.31
2022-11-24T01:46:26.561Z,100190.66
2022-11-24T01:49:01.362Z,100188.97
2022-11-24T01:51:30.203Z,100181.94
2022-11-24T01:54:00.259Z,100181.56
2022-11-24T01:56:27.074Z,100178.81
2022-11-24T01:58:55.812Z,100184.75
2022-11-24T02:01:22.302Z,100185.81
2022-11-24T02:03:49.431Z,100185.06
2022-11-24T02:06:21.513Z,100188.81
2022-11-24T02:08:53.248Z,100187.00
2022-11-24T02:11:21.518Z,100194.84
2022-11-24T02:13:48.364Z,100197.97
2022-11-24T02:16:14.878Z,100204.19
2022-11-24T02:18:42.176Z,100205.41
2022-11-24T02:21:09.942Z,100215.78
2022-11-24T02:24:06.741Z,100217.84
2022-11-24T02:26:40.620Z,100225.13
2022-11-24T02:29:07.423Z,100215.00
2022-11-24T02:31:34.018Z,100227.53
2022-11-24T02:34:00.456Z,100231.81
2022-11-24T02:36:26.930Z,100232.69
2022-11-24T02:38:53.376Z,100229.53
2022-11-24T02:41:22.182Z,100236.44
2022-11-24T02:43:53.130Z,100241.25
2022-11-24T02:46:19.655Z,100241.66
2022-11-24T02:48:46.090Z,100247.00
2022-11-24T02:51:12.731Z,100248.22
2022-11-24T02:53:39.328Z,100251.78
2022-11-24T02:56:06.102Z,100249.13
2022-11-24T02:58:32.501Z,100263.06
2022-11-24T03:00:59.776Z,100266.44
2022-11-24T03:03:27.052Z,100263.94
2022-11-24T03:05:54.060Z,100269.44
2022-11-24T03:08:20.542Z,100272.16
2022-11-24T03:10:47.310Z,100267.47
2022-11-24T03:13:13.740Z,100273.28
2022-11-24T03:15:40.284Z,100280.56
2022-11-24T03:18:09.053Z,100279.50
2022-11-24T03:20:35.644Z,100267.19
2022-11-24T03:23:02.277Z,100274.38
2022-11-24T03:25:28.871Z,100281.94
2022-11-24T03:27:57.218Z,100283.44
2022-11-24T03:30:23.711Z,100282.91
2022-11-24T03:32:52.706Z,100284.28
2022-11-24T03:35:20.347Z,100282.78
2022-11-24T03:37:46.845Z,100281.41
2022-11-24T03:40:13.567Z,100279.50
2022-11-24T03:42:41.008Z,100283.72
2022-11-24T03:47:54.809Z,100282.97
2022-11-24T03:50:21.289Z,100291.91
2022-11-24T03:52:47.697Z,100297.06
2022-11-24T03:55:14.311Z,100302.66
2022-11-24T03:57:40.724Z,100302.09
2022-11-24T04:00:08.101Z,100301.28
2022-11-24T04:02:34.862Z,100299.84
2022-11-24T04:05:02.023Z,100310.59
2022-11-24T04:07:28.680Z,100306.78
2022-11-24T04:09:55.177Z,100308.19
2022-11-24T04:12:40.355Z,100303.50
2022-11-24T04:15:07.160Z,100314.06
2022-11-24T04:17:33.736Z,100319.59
2022-11-24T04:20:00.534Z,100326.75
2022-11-24T04:22:26.961Z,100327.63
2022-11-24T04:24:53.579Z,100332.31
2022-11-24T04:27:20.153Z,100332.91
2022-11-24T04:29:46.679Z,100329.28
2022-11-24T04:32:13.080Z,100336.94
2022-11-24T04:34:39.559Z,100332.66
2022-11-24T04:37:06.025Z,100337.47
2022-11-24T04:39:32.571Z,100335.75
2022-11-24T04:41:58.981Z,100334.31
2022-11-24T04:44:25.420Z,100340.97
2022-11-24T04:46:52.011Z,100345.81
2022-11-24T04:49:19.089Z,100342.00
2022-11-24T04:51:45.913Z,100350.00
2022-11-24T04:54:13.504Z,100344.66
2022-11-24T04:56:40.953Z,100352.88
2022-11-24T04:59:08.619Z,100354.97
2022-11-24T05:01:35.783Z,100355.31
2022-11-24T05:04:02.449Z,100359.78
2022-11-24T05:06:28.962Z,100353.16
2022-11-24T05:08:55.373Z,100363.81
2022-11-24T05:11:21.820Z,100363.66
2022-11-24T05:13:48.357Z,100365.97
2022-11-24T05:16:14.988Z,100370.28
2022-11-24T05:18:41.601Z,100376.78
2022-11-24T05:21:08.160Z,100375.13
2022-11-24T05:23:34.595Z,100378.59
2022-11-24T05:26:01.653Z,100384.19
2022-11-24T05:28:28.736Z,100392.75
2022-11-24T05:30:59.047Z,100394.41
2022-11-24T05:33:27.108Z,100392.91
2022-11-24T05:35:53.607Z,100396.06
2022-11-24T05:38:21.053Z,100406.06
2022-11-24T05:40:47.468Z,100406.75
2022-11-24T05:43:15.587Z,100406.06
2022-11-24T05:45:42.680Z,100403.06
2022-11-24T05:48:11.664Z,100408.31
2022-11-24T05:50:38.547Z,100414.97
2022-11-24T05:53:06.412Z,100421.72
2022-11-24T05:55:33.254Z,100416.25
2022-11-24T05:58:00.840Z,100424.56
2022-11-24T06:00:28.074Z,100420.09
2022-11-24T06:02:54.742Z,100421.72
2022-11-24T06:05:21.707Z,100425.81
2022-11-24T06:07:48.260Z,100425.41
2022-11-24T06:10:16.282Z,100421.59
2022-11-24T06:12:42.963Z,100427.31
2022-11-24T06:15:09.836Z,100431.41
2022-11-24T06:17:36.309Z,100433.66
2022-11-24T06:20:03.130Z,100425.75
2022-11-24T06:22:29.527Z,100438.72
2022-11-24T06:24:55.944Z,100440.06
2022-11-24T06:27:23.177Z,100440.72
2022-11-24T06:29:49.669Z,100443.59
2022-11-24T06:32:16.285Z,100436.66
2022-11-24T06:34:42.948Z,100444.75
2022-11-24T06:37:09.787Z,100448.94
2022-11-24T06:39:36.512Z,100453.91
2022-11-24T06:42:03.592Z,100443.69
2022-11-24T06:44:30.083Z,100452.72
2022-11-24T06:46:56.493Z,100451.88
2022-11-24T06:49:23.121Z,100451.44
2022-11-24T06:51:50.324Z,100460.88
2022-11-24T06:54:26.858Z,100469.53
2022-11-24T06:56:57.464Z,100465.72
2022-11-24T06:59:24.276Z,100469.97
2022-11-24T07:01:50.846Z,100476.78
2022-11-24T07:04:17.769Z,100476.72
2022-11-24T07:06:44.838Z,100479.38
2022-11-24T07:09:12.805Z,100479.06
2022-11-24T07:11:39.981Z,100483.38
2022-11-24T07:14:06.863Z,100485.56
2022-11-24T07:16:33.875Z,100496.91
2022-11-24T07:19:00.697Z,100503.66
2022-11-24T07:21:28.299Z,100507.88
2022-11-24T07:23:56.536Z,100511.56
2022-11-24T07:26:23.653Z,100515.72
2022-11-24T07:28:50.798Z,100519.81
2022-11-24T07:31:20.402Z,100527.06
2022-11-24T07:33:51.175Z,100532.56
2022-11-24T07:36:18.092Z,100538.59
2022-11-24T07:38:44.760Z,100540.09
2022-11-24T07:41:12.970Z,100548.34
2022-11-24T07:43:40.053Z,100555.59
2022-11-24T07:46:08.137Z,100550.75
2022-11-24T07:48:34.813Z,100560.22
2022-11-24T07:51:04.598Z,100562.19
2022-11-24T07:53:32.213Z,100565.63
2022-11-24T07:56:00.407Z,100565.09
2022-11-24T07:58:32.403Z,100571.78
2022-11-24T08:01:00.074Z,100576.63
2022-11-24T08:03:26.661Z,100583.81
2022-11-24T08:06:23.205Z,100588.06
2022-11-24T08:08:46.777Z,100583.47
2022-11-24T08:11:15.872Z,100590.13
2022-11-24T08:13:43.031Z,100598.09
2022-11-24T08:16:15.483Z,100593.22
2022-11-24T08:18:42.411Z,100598.66
2022-11-24T08:21:13.023Z,100600.88
2022-11-24T08:23:39.531Z,100604.94
2022-11-24T08:26:08.982Z,100602.50
2022-11-24T08:28:35.616Z,100609.06
2022-11-24T08:31:10.490Z,100600.72
2022-11-24T08:33:37.430Z,100608.44
2022-11-24T08:36:09.041Z,100614.06
2022-11-24T08:38:35.855Z,100614.75
2022-11-24T08:41:03.742Z,100618.00
2022-11-24T08:43:30.290Z,100617.66
2022-11-24T08:46:00.749Z,100626.22
2022-11-24T08:48:27.830Z,100622.34
2022-11-24T08:50:54.254Z,100624.69
2022-11-24T08:53:20.680Z,100634.19
2022-11-24T08:55:47.127Z,100632.56
2022-11-24T08:58:13.590Z,100633.94
2022-11-24T09:00:40.237Z,100635.31
2022-11-24T09:03:06.691Z,100639.63
2022-11-24T09:08:20.677Z,100647.88
2022-11-24T09:10:47.409Z,100656.72
2022-11-24T09:13:14.024Z,100649.78
2022-11-24T09:15:40.655Z,100653.97
2022-11-24T09:18:07.339Z,100651.16
2022-11-24T09:20:33.868Z,100653.31
2022-11-24T09:23:00.396Z,100652.47
2022-11-24T09:25:27.154Z,100662.84
2022-11-24T09:27:54.569Z,100667.03
2022-11-24T09:30:21.114Z,100662.69
2022-11-24T09:32:47.665Z,100666.25
2022-11-24T09:35:14.455Z,100660.06
2022-11-24T09:37:41.335Z,100669.53
2022-11-24T09:40:12.401Z,100668.53
2022-11-24T09:42:45.239Z,100671.06
2022-11-24T09:46:05.601Z,100667.59
2022-11-24T09:48:36.666Z,100678.66
2022-11-24T09:51:04.562Z,100681.16
2022-11-24T09:53:55.304Z,100676.75
2022-11-24T09:56:25.652Z,100677.91
2022-11-24T09:58:55.036Z,100683.97
2022-11-24T10:01:43.610Z,100685.44
2022-11-24T10:04:26.847Z,100681.97
2022-11-24T10:07:11.932Z,100684.91
2022-11-24T10:09:53.471Z,100693.38
2022-11-24T10:13:04.991Z,100690.38
2022-11-24T10:16:08.364Z,100704.38
2022-11-24T10:18:38.159Z,100707.22
2022-11-24T10:21:28.149Z,100706.50
2022-11-24T10:24:21.025Z,100704.38
2022-11-24T10:27:02.112Z,100701.38
2022-11-24T10:29:39.973Z,100715.47
2022-11-24T10:32:20.176Z,100707.13
2022-11-24T10:34:50.816Z,100705.31
2022-11-24T10:37:28.526Z,100709.22
2022-11-24T10:40:26.976Z,100700.84
2022-11-24T10:42:59.817Z,100700.84
2022-11-24T10:45:27.995Z,100708.03
2022-11-24T10:47:54.429Z,100708.34
2022-11-24T10:50:36.803Z,100713.72
2022-11-24T10:53:10.743Z,100716.97
2022-11-24T10:55:56.316Z,100718.50
2022-11-24T10:58:26.989Z,100713.13
2022-11-24T11:00:54.581Z,100720.59
2022-11-24T11:03:26.244Z,100719.66
2022-11-24T11:06:11.128Z,100719.81
2022-11-24T11:08:39.907Z,100724.59
2022-11-24T11:11:15.893Z,100727.28
2022-11-24T11:14:01.597Z,100722.06
2022-11-24T11:16:38.951Z,100731.44
2022-11-24T11:19:47.841Z,100736.41
2022-11-24T11:22:13.027Z,100751.06
2022-11-24T11:24:41.345Z,100754.19
2022-11-24T11:27:22.827Z,100752.81
2022-11-24T11:35:41.732Z,100757.91
2022-11-24T11:38:09.938Z,100765.38
2022-11-24T11:40:36.637Z,100762.69
2022-11-24T11:43:33.199Z,100772.81
2022-11-24T11:46:06.662Z,100776.75
2022-11-24T11:48:43.163Z,100782.09
2022-11-24T11:51:31.408Z,100783.31
2022-11-24T11:54:18.671Z,100782.69
2022-11-24T11:56:50.480Z,100778.44
2022-11-24T11:59:40.084Z,100787.38
2022-11-24T12:02:51.651Z,100786.41
2022-11-24T12:05:51.105Z,100803.06
2022-11-24T12:08:55.978Z,100812.22
2022-11-24T12:11:39.767Z,100814.44
2022-11-24T12:14:12.423Z,100816.72
2022-11-24T12:17:13.526Z,100815.31
2022-11-24T12:19:59.332Z,100811.31
2022-11-24T12:22:50.957Z,100820.28
2022-11-24T12:25:35.740Z,100826.34
2022-11-24T12:28:06.756Z,100812.13
2022-11-24T12:31:17.863Z,100820.78
2022-11-24T12:34:01.354Z,100820.03
2022-11-24T12:37:03.569Z,100828.72
2022-11-24T12:39:46.107Z,100827.25
2022-11-24T12:42:27.158Z,100827.22
2022-11-24T12:45:08.726Z,100830.94
2022-11-24T12:47:53.358Z,100829.91
2022-11-24T12:50:22.503Z,100836.19
2022-11-24T12:53:03.505Z,100836.19
2022-11-24T12:55:33.459Z,100833.66
2022-11-24T12:58:10.779Z,100836.03
2022-11-24T13:00:48.150Z,100833.50
2022-11-24T13:03:44.044Z,100837.41
2022-11-24T13:06:13.702Z,100843.38
2022-11-24T13:08:40.344Z,100852.34
2022-11-24T13:11:22.066Z,100858.59
2022-11-24T13:14:01.488Z,100858.00
2022-11-24T13:16:36.888Z,100865.75
2022-11-24T13:19:10.084Z,100875.34
2022-11-24T13:21:36.718Z,100878.16
2022-11-24T13:24:05.448Z,100875.81
2022-11-24T13:26:43.800Z,100874.13
2022-11-24T13:29:31.421Z,100868.16
2022-11-24T13:32:00.985Z,100883.38
2022-11-24T13:34:39.736Z,100880.72
2022-11-24T13:37:33.643Z,100883.41
2022-11-24T13:40:12.352Z,100884.28
2022-11-24T13:42:57.547Z,100887.09
2022-11-24T13:45:39.472Z,100889.84
2022-11-24T13:48:21.942Z,100882.94
2022-11-24T13:50:53.151Z,100893.19
2022-11-24T13:53:38.031Z,100888.41
2022-11-24T13:56:13.618Z,100882.16
2022-11-24T13:58:40.059Z,100884.28
2022-11-24T14:01:23.712Z,100884.84
2022-11-24T14:04:30.437Z,100891.75
2022-11-24T14:07:07.088Z,100895.00
2022-11-24T14:09:43.386Z,100900.03
2022-11-24T14:12:18.051Z,100905.06
2022-11-24T14:14:48.178Z,100908.81
2022-11-24T14:17:19.431Z,100914.09
2022-11-24T14:19:48.694Z,100915.13
2022-11-24T14:22:19.945Z,100914.22
2022-11-24T14:24:52.401Z,100917.97
2022-11-24T14:27:21.589Z,100918.63
2022-11-24T14:29:56.107Z,100923.97
2022-11-24T14:32:23.850Z,100927.47
2022-11-24T14:34:52.077Z,100928.16
2022-11-24T14:37:19.542Z,100929.41
2022-11-24T14:39:46.334Z,100941.94
2022-11-24T14:42:18.575Z,100940.13
2022-11-24T14:44:59.335Z,100941.81
2022-11-24T14:47:32.246Z,100947.19
2022-11-24T14:50:16.794Z,100939.13
2022-11-24T14:52:53.394Z,100940.38
2022-11-24T14:55:25.767Z,100939.66
2022-11-24T14:57:52.433Z,100931.50
2022-11-24T15:00:24.932Z,100935.56
2022-11-24T15:02:55.887Z,100934.19
2022-11-24T15:05:24.684Z,100937.81
2022-11-24T15:08:03.766Z,100945.31
2022-11-24T15:10:37.812Z,100941.59
2022-11-24T15:13:19.947Z,100937.38
2022-11-24T15:15:57.611Z,100939.94
2022-11-24T15:18:38.015Z,100931.75
2022-11-24T15:21:04.740Z,100947.19
2022-11-24T15:23:33.012Z,100950.00
2022-11-24T15:26:02.492Z,100952.00
2022-11-24T15:28:30.224Z,100956.19
2022-11-24T15:31:03.188Z,100953.09
2022-11-24T15:33:30.437Z,100956.78
2022-11-24T15:35:57.057Z,100953.19
2022-11-24T15:38:23.634Z,100951.78
2022-11-24T15:40:51.934Z,100958.09
2022-11-24T15:43:32.645Z,100962.78
2022-11-24T15:46:00.619Z,100965.88
2022-11-24T15:48:27.757Z,100971.41
2022-11-24T15:50:54.823Z,100968.06
2022-11-24T15:53:21.949Z,100962.00
2022-11-24T15:55:48.759Z,100969.75
2022-11-24T15:58:15.555Z,100968.91
2022-11-24T16:00:43.384Z,100970.69
2022-11-24T16:03:44.591Z,100977.28
2022-11-24T16:05:57.777Z,100975.09
2022-11-24T16:08:24.890Z,100979.44
2022-11-24T16:10:51.568Z,100984.16
2022-11-24T16:13:18.274Z,100987.88
2022-11-24T16:15:45.487Z,100983.50
2022-11-24T16:18:13.883Z,100994.28
2022-11-24T16:20:40.433Z,101002.25
2022-11-24T16:23:07.133Z,101000.75
2022-11-24T16:25:33.677Z,101013.22
2022-11-24T16:28:02.628Z,101016.16
2022-11-24T16:30:29.093Z,101014.97
2022-11-24T16:32:55.687Z,101018.81
2022-11-24T16:35:22.255Z,101014.22
2022-11-24T16:37:51.414Z,101024.16
2022-11-24T16:40:18.409Z,101020.25
2022-11-24T16:42:44.885Z,101025.72
2022-11-24T16:45:12.787Z,101033.47
2022-11-24T16:47:41.221Z,101042.22
2022-11-24T16:50:09.248Z,101034.47
2022-11-24T16:52:35.711Z,101040.19
2022-11-24T16:55:02.235Z,101031.81
2022-11-24T16:57:28.719Z,101040.22
2022-11-24T16:59:55.297Z,101036.25
2022-11-24T17:02:21.779Z,101036.00
2022-11-24T17:04:52.091Z,101033.97
2022-11-24T17:07:19.156Z,101041.44
2022-11-24T17:09:45.712Z,101046.66
2022-11-24T17:12:12.154Z,101053.13
2022-11-24T17:14:38.588Z,101047.16
2022-11-24T17:17:05.066Z,101050.75
2022-11-24T17:19:31.904Z,101036.09
2022-11-24T17:21:58.358Z,101046.53
2022-11-24T17:24:24.912Z,101045.78
2022-11-24T17:26:51.428Z,101048.09
2022-11-24T17:29:18.198Z,101052.94
2022-11-24T17:31:44.763Z,101059.06
2022-11-24T17:34:11.842Z,101052.50
2022-11-24T17:36:39.994Z,101051.91
2022-11-24T17:39:09.548Z,101050.84
2022-11-24T17:41:36.233Z,101060.91
2022-11-24T17:44:02.938Z,101053.16
2022-11-24T17:46:30.534Z,101054.13
2022-11-24T17:48:57.283Z,101049.56
2022-11-24T17:51:27.679Z,101060.13
2022-11-24T17:53:55.446Z,101054.63
2022-11-24T17:56:27.026Z,101059.50
2022-11-24T17:58:54.870Z,101056.09
2022-11-24T18:01:22.169Z,101056.78
2022-11-24T18:03:53.421Z,101056.22
2022-11-24T18:06:21.095Z,101058.63
2022-11-24T18:08:48.457Z,101063.25
2022-11-24T18:11:30.468Z,101062.44
2022-11-24T18:14:00.948Z,101066.53
2022-11-24T18:16:30.239Z,101063.50
2022-11-24T18:19:14.059Z,101059.00
2022-11-24T18:21:41.777Z,101057.59
2022-11-24T18:24:12.467Z,101061.66
2022-11-24T18:26:40.172Z,101055.41
2022-11-24T18:29:06.593Z,101051.50
2022-11-24T18:31:35.496Z,101055.47
2022-11-24T18:34:03.235Z,101062.47
2022-11-24T18:36:30.815Z,101063.03
2022-11-24T18:39:00.358Z,101055.38
2022-11-24T18:41:27.121Z,101052.91
2022-11-24T18:43:53.552Z,101058.44
2022-11-24T18:46:21.594Z,101058.09
2022-11-24T18:48:48.181Z,101067.16
2022-11-24T18:51:14.879Z,101055.50
2022-11-24T18:53:42.656Z,101052.75
2022-11-24T18:56:12.872Z,101059.59
2022-11-24T18:58:39.590Z,101056.50
2022-11-24T19:01:08.671Z,101058.25
2022-11-24T19:03:52.357Z,101060.94
2022-11-24T19:06:32.102Z,101051.22
2022-11-24T19:09:04.362Z,101049.94
2022-11-24T19:11:33.855Z,101055.41
2022-11-24T19:14:01.474Z,101062.50
2022-11-24T19:16:28.158Z,101053.41
2022-11-24T19:19:00.061Z,101054.97
2022-11-24T19:21:27.829Z,101046.72
2022-11-24T19:23:55.203Z,101046.88
2022-11-24T19:26:24.320Z,101049.38
2022-11-24T19:28:51.121Z,101056.47
2022-11-24T19:31:18.956Z,101061.97
2022-11-24T19:33:46.030Z,101060.66
2022-11-24T19:36:20.156Z,101065.31
2022-11-24T19:38:54.286Z,101062.25
2022-11-24T19:41:22.316Z,101058.44
2022-11-24T19:43:48.884Z,101062.09
2022-11-24T19:46:17.316Z,101072.81
2022-11-24T19:48:54.212Z,101072.13
2022-11-24T19:51:22.657Z,101074.66
2022-11-24T19:53:49.249Z,101070.34
2022-11-24T19:56:20.820Z,101076.47
2022-11-24T19:58:48.420Z,101077.97
2022-11-24T20:01:21.981Z,101081.41
2022-11-24T20:04:23.304Z,101091.22
2022-11-24T20:06:49.959Z,101102.13
2022-11-24T20:09:17.453Z,101096.81
2022-11-24T20:11:44.229Z,101105.06
2022-11-24T20:14:12.826Z,101104.72
2022-11-24T20:16:39.666Z,101114.13
2022-11-24T20:19:09.431Z,101111.84
2022-11-24T20:21:37.478Z,101107.00
2022-11-24T20:24:05.568Z,101116.31
2022-11-24T20:26:34.709Z,101118.28
2022-11-24T20:29:01.676Z,101108.78
2022-11-24T20:31:30.762Z,101122.47
2022-11-24T20:33:57.498Z,101122.31
2022-11-24T20:36:25.648Z,101122.47
2022-11-24T20:38:52.606Z,101114.34
2022-11-24T20:41:24.094Z,101117.66
2022-11-24T20:43:51.634Z,101120.81
2022-11-24T20:46:19.756Z,101125.16
2022-11-24T20:48:46.725Z,101127.31
2022-11-24T20:51:28.167Z,101124.72
2022-11-24T20:54:01.027Z,101133.31
2022-11-24T20:56:30.022Z,101130.09
2022-11-24T20:58:56.768Z,101125.47
2022-11-24T21:01:30.441Z,101127.56
2022-11-24T21:03:58.750Z,101126.22
2022-11-24T21:06:26.480Z,101130.16
2022-11-24T21:08:52.967Z,101129.94
2022-11-24T21:11:20.634Z,101127.50
2022-11-24T21:13:48.632Z,101126.88
2022-11-24T21:16:27.495Z,101119.69
2022-11-24T21:19:05.385Z,101121.97
2022-11-24T21:21:34.635Z,101129.22
2022-11-24T21:24:06.843Z,101125.84
2022-11-24T21:26:37.190Z,101127.38
2022-11-24T21:29:04.123Z,101133.78
2022-11-24T21:31:30.587Z,101125.84
2022-11-24T21:33:57.026Z,101119.09
2022-11-24T21:36:25.244Z,101128.16
2022-11-24T21:38:53.411Z,101123.50
2022-11-24T21:41:20.901Z,101126.56
2022-11-24T21:43:47.850Z,101117.84
2022-11-24T21:46:14.655Z,101126.22
2022-11-24T21:48:42.126Z,101127.38
2022-11-24T21:51:12.464Z,101119.34
2022-11-24T21:53:39.273Z,101120.53
2022-11-24T21:56:09.739Z,101118.69
2022-11-24T21:58:36.549Z,101124.66
2022-11-24T22:01:04.929Z,101124.38
2022-11-24T22:03:31.706Z,101113.81
2022-11-24T22:05:59.633Z,101114.53
2022-11-24T22:08:27.429Z,101110.66
2022-11-24T22:10:54.448Z,101117.13
2022-11-24T22:13:20.822Z,101122.44
2022-11-24T22:15:47.295Z,101112.22
2022-11-24T22:18:13.780Z,101117.47
2022-11-24T22:20:40.372Z,101120.47
2022-11-24T22:23:06.785Z,101119.75
2022-11-24T22:25:33.561Z,101124.28
2022-11-24T22:27:59.975Z,101126.66
2022-11-24T22:30:26.476Z,101119.84
2022-11-24T22:32:53.090Z,101106.97
2022-11-24T22:35:19.512Z,101117.63
2022-11-24T22:37:46.043Z,101116.78
2022-11-24T22:40:12.540Z,101106.94
2022-11-24T22:42:39.043Z,101119.84
2022-11-24T22:45:06.045Z,101114.16
2022-11-24T22:47:32.451Z,101101.56
2022-11-24T22:49:58.847Z,101115.63
2022-11-24T22:52:25.291Z,101100.44
2022-11-24T22:54:51.666Z,101108.44
2022-11-24T22:57:18.096Z,101109.91
2022-11-24T22:59:44.530Z,101104.09
2022-11-24T23:02:10.959Z,101112.06
2022-11-24T23:04:37.666Z,101103.03
2022-11-24T23:07:04.202Z,101102.63
2022-11-24T23:09:30.649Z,101096.34
2022-11-24T23:11:57.046Z,101098.69
2022-11-24T23:14:23.452Z,101093.00
2022-11-24T23:16:49.887Z,101087.28
2022-11-24T23:19:16.341Z,101089.56
2022-11-24T23:21:42.726Z,101086.09
2022-11-24T23:24:10.026Z,101084.88
2022-11-24T23:26:38.874Z,101089.81
2022-11-24T23:29:05.841Z,101086.78
2022-11-24T23:31:32.752Z,101084.84
2022-11-24T23:34:00.814Z,101086.06
2022-11-24T23:36:27.926Z,101086.81
2022-11-24T23:38:54.705Z,101095.94
2022-11-24T23:41:24.236Z,101094.06
2022-11-24T23:43:52.213Z,101092.22
2022-11-24T23:46:20.769Z,101090.31
2022-11-24T23:48:47.999Z,101094.84
2022-11-24T23:51:17.460Z,101081.13
2022-11-24T23:53:44.536Z,101074.25
2022-11-24T23:56:16.731Z,101074.25
2022-11-24T23:58:43.916Z,101071.97
